createdAt,value
2022-12-18T00:01:27.160Z,6.00
2022-12-18T00:03:55.507Z,6.10
2022-12-18T00:06:23.320Z,4.10
2022-12-18T00:08:50.291Z,5.30
2022-12-18T00:11:23.408Z,4.90
2022-12-18T00:13:50.711Z,4.30
2022-12-18T00:16:23.231Z,3.40
2022-12-18T00:18:51.633Z,5.30
2022-12-18T00:21:19.228Z,4.30
2022-12-18T00:23:48.159Z,5.00
2022-12-18T00:26:24.535Z,4.80
2022-12-18T00:28:53.057Z,5.00
2022-12-18T00:31:22.719Z,6.30
2022-12-18T00:33:52.630Z,6.10
2022-12-18T00:36:24.733Z,5.40
2022-12-18T00:38:54.020Z,5.00
2022-12-18T00:41:40.532Z,4.20
2022-12-18T00:44:10.464Z,4.50
2022-12-18T00:46:37.356Z,4.20
2022-12-18T00:49:05.075Z,5.60
2022-12-18T00:51:31.798Z,4.90
2022-12-18T00:53:58.693Z,4.60
2022-12-18T00:56:26.063Z,4.60
2022-12-18T00:58:53.484Z,7.30
2022-12-18T01:01:20.823Z,6.30
2022-12-18T01:03:47.876Z,4.10
2022-12-18T01:06:17.772Z,5.50
2022-12-18T01:08:45.839Z,10.40
2022-12-18T01:11:18.728Z,5.50
2022-12-18T01:13:45.806Z,5.40
2022-12-18T01:16:15.367Z,7.20
2022-12-18T01:18:42.196Z,7.20
2022-12-18T01:21:11.991Z,6.10
2022-12-18T01:23:39.388Z,4.30
2022-12-18T01:26:08.893Z,3.90
2022-12-18T01:28:36.477Z,5.20
2022-12-18T01:31:18.003Z,6.80
2022-12-18T01:33:45.833Z,4.20
2022-12-18T01:36:20.683Z,4.60
2022-12-18T01:38:48.715Z,5.10
2022-12-18T01:41:18.167Z,4.30
2022-12-18T01:43:57.945Z,4.30
2022-12-18T01:46:25.914Z,4.80
2022-12-18T01:48:57.643Z,4.70
2022-12-18T01:51:26.673Z,4.80
2022-12-18T01:53:53.474Z,4.50
2022-12-18T01:56:22.116Z,3.90
2022-12-18T01:59:03.292Z,5.80
2022-12-18T02:01:32.130Z,3.60
2022-12-18T02:04:21.263Z,4.80
2022-12-18T02:06:55.164Z,4.20
2022-12-18T02:09:34.483Z,3.70
2022-12-18T02:14:50.231Z,3.50
2022-12-18T02:17:28.208Z,3.70
2022-12-18T02:20:07.139Z,4.00
2022-12-18T02:23:04.720Z,4.40
2022-12-18T02:26:09.156Z,3.90
2022-12-18T02:28:48.517Z,4.10
2022-12-18T02:31:22.472Z,3.90
2022-12-18T02:33:52.329Z,4.10
2022-12-18T02:36:21.195Z,4.10
2022-12-18T02:38:49.368Z,4.60
2022-12-18T02:41:17.888Z,4.10
2022-12-18T02:43:56.121Z,4.50
2022-12-18T02:46:32.304Z,4.00
2022-12-18T02:49:17.324Z,3.90
2022-12-18T02:52:01.325Z,4.50
2022-12-18T02:54:28.052Z,3.30
2022-12-18T02:56:59.006Z,4.40
2022-12-18T02:59:36.475Z,4.10
2022-12-18T03:02:18.885Z,4.10
2022-12-18T03:04:52.039Z,4.80
2022-12-18T03:07:27.576Z,3.70
2022-12-18T03:09:56.694Z,3.80
2022-12-18T03:12:33.639Z,5.10
2022-12-18T03:15:17.837Z,5.90
2022-12-18T03:17:54.255Z,4.90
2022-12-18T03:20:24.769Z,4.80
2022-12-18T03:27:59.088Z,4.10
2022-12-18T03:30:30.427Z,5.90
2022-12-18T03:33:12.503Z,5.60
2022-12-18T03:35:43.871Z,5.40
2022-12-18T03:38:12.321Z,8.60
2022-12-18T03:40:46.213Z,7.10
2022-12-18T03:43:23.606Z,4.60
2022-12-18T03:46:07.984Z,4.50
2022-12-18T03:51:19.371Z,6.70
2022-12-18T03:53:54.863Z,6.60
2022-12-18T03:56:29.668Z,7.40
2022-12-18T03:58:58.949Z,5.00
2022-12-18T04:01:34.851Z,4.70
2022-12-18T04:04:03.630Z,6.00
2022-12-18T04:06:37.522Z,6.70
2022-12-18T04:09:06.045Z,4.50
2022-12-18T04:11:35.893Z,5.20
2022-12-18T04:14:07.079Z,7.80
2022-12-18T04:16:34.688Z,5.60
2022-12-18T04:19:02.686Z,6.90
2022-12-18T04:21:34.230Z,5.30
2022-12-18T04:24:01.167Z,4.70
2022-12-18T04:26:28.675Z,4.90
2022-12-18T04:29:04.412Z,5.00
2022-12-18T04:31:31.313Z,5.80
2022-12-18T04:33:58.298Z,6.40
2022-12-18T04:36:28.696Z,5.50
2022-12-18T04:38:55.632Z,4.20
2022-12-18T04:41:22.968Z,4.10
2022-12-18T04:43:50.113Z,8.60
2022-12-18T04:46:16.996Z,4.80
2022-12-18T04:48:46.911Z,3.70
2022-12-18T04:51:13.804Z,6.70
2022-12-18T04:53:40.865Z,5.40
2022-12-18T04:56:16.240Z,4.60
2022-12-18T04:58:45.075Z,4.80
2022-12-18T05:01:14.562Z,3.90
2022-12-18T05:03:42.526Z,3.40
2022-12-18T05:06:10.556Z,3.90
2022-12-18T05:08:37.292Z,4.20
2022-12-18T05:11:16.817Z,4.90
2022-12-18T05:13:45.514Z,4.00
2022-12-18T05:16:12.979Z,5.10
2022-12-18T05:18:39.919Z,5.60
2022-12-18T05:21:07.059Z,4.30
2022-12-18T05:23:37.679Z,6.20
2022-12-18T05:26:07.146Z,6.70
2022-12-18T05:28:35.880Z,5.70
2022-12-18T05:31:04.100Z,5.90
2022-12-18T05:33:33.077Z,6.70
2022-12-18T05:36:04.942Z,5.60
2022-12-18T05:38:33.553Z,5.50
2022-12-18T05:41:00.377Z,5.00
2022-12-18T05:43:28.237Z,6.70
2022-12-18T05:45:55.561Z,7.80
2022-12-18T05:48:23.295Z,6.50
2022-12-18T05:50:51.409Z,7.40
2022-12-18T05:53:21.074Z,8.60
2022-12-18T05:55:48.655Z,7.60
2022-12-18T05:58:16.785Z,6.40
2022-12-18T06:00:46.057Z,6.20
2022-12-18T06:03:14.642Z,6.00
2022-12-18T06:05:45.025Z,7.90
2022-12-18T06:08:12.939Z,7.50
2022-12-18T06:10:40.760Z,5.90
2022-12-18T06:13:08.609Z,6.30
2022-12-18T06:15:39.054Z,6.70
2022-12-18T06:18:06.015Z,6.90
2022-12-18T06:20:33.916Z,7.10
2022-12-18T06:23:01.175Z,8.50
2022-12-18T06:25:28.280Z,6.00
2022-12-18T06:27:55.801Z,7.20
2022-12-18T06:30:22.657Z,7.20
2022-12-18T06:32:56.120Z,9.30
2022-12-18T06:35:24.446Z,9.60
2022-12-18T06:37:51.300Z,10.10
2022-12-18T06:40:18.309Z,8.70
2022-12-18T06:42:45.140Z,9.10
2022-12-18T06:45:12.675Z,18.60
2022-12-18T06:47:39.492Z,8.60
2022-12-18T06:50:06.799Z,19.40
2022-12-18T06:52:34.676Z,15.10
2022-12-18T06:55:01.925Z,11.80
2022-12-18T06:57:28.928Z,9.20
2022-12-18T06:59:55.713Z,8.40
2022-12-18T07:02:22.414Z,9.90
2022-12-18T07:04:52.271Z,12.50
2022-12-18T07:07:19.115Z,10.60
2022-12-18T07:09:45.856Z,17.70
2022-12-18T07:12:12.732Z,13.00
2022-12-18T07:14:39.421Z,9.40
2022-12-18T07:17:06.992Z,12.80
2022-12-18T07:19:34.085Z,10.40
2022-12-18T07:22:01.547Z,9.10
2022-12-18T07:24:29.449Z,7.60
2022-12-18T07:26:56.072Z,8.60
2022-12-18T07:29:22.692Z,8.90
2022-12-18T07:31:50.263Z,7.80
2022-12-18T07:34:17.721Z,11.60
2022-12-18T07:36:44.429Z,9.40
2022-12-18T07:39:12.770Z,9.90
2022-12-18T07:41:46.695Z,8.40
2022-12-18T07:44:16.150Z,10.30
2022-12-18T07:46:42.888Z,9.00
2022-12-18T07:49:09.601Z,11.30
2022-12-18T07:51:36.195Z,11.00
2022-12-18T07:54:02.890Z,9.50
2022-12-18T07:56:31.135Z,8.90
2022-12-18T07:58:59.997Z,7.20
2022-12-18T08:01:27.157Z,8.20
2022-12-18T08:03:54.267Z,8.80
2022-12-18T08:06:23.767Z,9.80
2022-12-18T08:08:56.082Z,7.20
2022-12-18T08:11:24.479Z,7.60
2022-12-18T08:13:51.428Z,6.20
2022-12-18T08:16:19.295Z,6.20
2022-12-18T08:18:47.032Z,7.70
2022-12-18T08:21:16.242Z,6.20
2022-12-18T08:23:44.059Z,6.60
2022-12-18T08:26:12.551Z,6.20
2022-12-18T08:28:40.539Z,6.50
2022-12-18T08:31:08.250Z,6.50
2022-12-18T08:33:36.574Z,7.40
2022-12-18T08:36:07.203Z,8.40
2022-12-18T08:38:34.558Z,5.70
2022-12-18T08:41:01.914Z,11.30
2022-12-18T08:44:01.524Z,12.60
2022-12-18T08:46:34.102Z,9.00
2022-12-18T08:49:00.853Z,8.30
2022-12-18T08:51:27.943Z,7.60
2022-12-18T08:53:54.739Z,8.30
2022-12-18T08:56:21.483Z,8.90
2022-12-18T08:58:48.327Z,9.00
2022-12-18T09:01:15.117Z,8.40
2022-12-18T09:03:42.375Z,11.50
2022-12-18T09:06:09.680Z,9.40
2022-12-18T09:08:38.108Z,10.60
2022-12-18T09:11:05.368Z,8.20
2022-12-18T09:13:32.138Z,13.20
2022-12-18T09:15:59.102Z,10.90
2022-12-18T09:18:26.110Z,9.10
2022-12-18T09:20:54.019Z,9.30
2022-12-18T09:23:22.100Z,7.60
2022-12-18T09:25:48.929Z,8.20
2022-12-18T09:28:18.684Z,6.50
2022-12-18T09:30:49.825Z,7.80
2022-12-18T09:33:17.557Z,7.60
2022-12-18T09:35:45.565Z,9.80
2022-12-18T09:38:18.015Z,8.00
2022-12-18T09:40:48.540Z,8.20
2022-12-18T09:43:23.377Z,7.50
2022-12-18T09:45:59.532Z,8.60
2022-12-18T09:48:37.626Z,9.20
2022-12-18T09:51:23.699Z,12.00
2022-12-18T09:54:00.225Z,9.30
2022-12-18T09:56:29.604Z,10.50
2022-12-18T09:59:01.280Z,8.40
2022-12-18T10:01:38.776Z,9.50
2022-12-18T10:04:09.843Z,7.70
2022-12-18T10:07:04.348Z,8.10
2022-12-18T10:09:39.769Z,7.90
2022-12-18T10:12:33.786Z,9.70
2022-12-18T10:15:23.416Z,10.70
2022-12-18T10:18:00.267Z,8.40
2022-12-18T10:20:49.970Z,7.70
2022-12-18T10:23:48.154Z,7.00
2022-12-18T10:26:15.720Z,8.80
2022-12-18T10:28:45.280Z,6.90
2022-12-18T10:31:20.930Z,8.50
2022-12-18T10:33:51.158Z,8.90
2022-12-18T10:36:17.790Z,8.00
2022-12-18T10:38:44.619Z,7.20
2022-12-18T10:41:23.046Z,6.80
2022-12-18T10:44:09.711Z,7.90
2022-12-18T10:46:36.694Z,6.60
2022-12-18T10:49:03.812Z,11.60
2022-12-18T10:51:38.449Z,8.30
2022-12-18T10:54:17.569Z,7.80
2022-12-18T10:56:45.138Z,7.50
2022-12-18T10:59:15.908Z,7.20
2022-12-18T11:01:56.244Z,8.20
2022-12-18T11:04:24.464Z,7.80
2022-12-18T11:07:11.318Z,7.00
2022-12-18T11:09:40.582Z,7.50
2022-12-18T11:12:18.759Z,8.30
2022-12-18T11:14:51.564Z,7.90
2022-12-18T11:17:32.388Z,6.70
2022-12-18T11:20:04.867Z,7.70
2022-12-18T11:22:33.925Z,7.50
2022-12-18T11:25:32.347Z,8.20
2022-12-18T11:28:27.623Z,8.30
2022-12-18T11:31:11.024Z,7.80
2022-12-18T11:33:53.181Z,7.90
2022-12-18T11:36:33.997Z,8.20
2022-12-18T11:39:10.948Z,9.40
2022-12-18T11:42:06.675Z,9.20
2022-12-18T11:44:59.339Z,7.60
2022-12-18T11:47:53.405Z,7.30
2022-12-18T11:50:25.880Z,7.30
2022-12-18T11:52:56.695Z,8.30
2022-12-18T11:55:34.316Z,8.10
2022-12-18T11:58:10.964Z,8.20
2022-12-18T12:01:01.368Z,7.90
2022-12-18T12:03:31.273Z,7.40
2022-12-18T12:06:16.656Z,7.90
2022-12-18T12:09:19.473Z,9.80
2022-12-18T12:12:01.098Z,11.10
2022-12-18T12:14:45.872Z,6.70
2022-12-18T12:17:31.008Z,8.00
2022-12-18T12:20:12.080Z,8.40
2022-12-18T12:22:59.611Z,7.60
2022-12-18T12:25:32.702Z,7.90
2022-12-18T12:28:21.190Z,9.60
2022-12-18T12:31:02.064Z,12.70
2022-12-18T12:33:58.056Z,8.80
2022-12-18T12:36:35.930Z,9.10
2022-12-18T12:39:09.565Z,9.80
2022-12-18T12:41:57.481Z,7.80
2022-12-18T12:44:37.046Z,7.70
2022-12-18T12:47:14.947Z,10.70
2022-12-18T12:49:49.297Z,11.00
2022-12-18T12:52:37.056Z,9.80
2022-12-18T12:55:13.188Z,10.10
2022-12-18T12:57:52.460Z,9.20
2022-12-18T13:00:21.509Z,8.00
2022-12-18T13:03:23.532Z,9.30
2022-12-18T13:06:05.836Z,8.90
2022-12-18T13:08:54.473Z,9.00
2022-12-18T13:12:02.219Z,11.80
2022-12-18T13:14:36.708Z,9.30
2022-12-18T13:17:20.300Z,10.30
2022-12-18T13:20:09.703Z,8.20
2022-12-18T13:22:47.112Z,9.10
2022-12-18T13:25:37.199Z,8.70
2022-12-18T13:28:13.699Z,9.60
2022-12-18T13:30:47.022Z,9.30
2022-12-18T13:33:22.981Z,10.00
2022-12-18T13:35:50.247Z,7.50
2022-12-18T13:38:24.250Z,8.10
2022-12-18T13:40:50.989Z,8.20
2022-12-18T13:43:21.089Z,7.30
2022-12-18T13:46:18.165Z,8.70
2022-12-18T13:49:02.146Z,12.10
2022-12-18T13:51:32.007Z,8.50
2022-12-18T13:54:19.863Z,7.80
2022-12-18T13:56:48.960Z,7.50
2022-12-18T13:59:23.242Z,8.20
2022-12-18T14:01:55.882Z,8.30
2022-12-18T14:04:24.826Z,7.10
2022-12-18T14:06:56.255Z,9.10
2022-12-18T14:09:27.587Z,7.80
2022-12-18T14:12:15.454Z,7.30
2022-12-18T14:14:46.188Z,6.70
2022-12-18T14:17:13.536Z,7.50
2022-12-18T14:19:49.768Z,8.00
2022-12-18T14:22:22.842Z,9.40
2022-12-18T14:25:11.821Z,10.80
2022-12-18T14:27:42.401Z,8.70
2022-12-18T14:30:45.383Z,8.10
2022-12-18T14:33:19.726Z,6.70
2022-12-18T14:35:58.820Z,6.80
2022-12-18T14:38:40.069Z,6.90
2022-12-18T14:41:12.416Z,7.00
2022-12-18T14:43:41.753Z,7.10
2022-12-18T14:46:27.616Z,8.60
2022-12-18T14:48:55.126Z,7.90
2022-12-18T14:51:31.148Z,6.20
2022-12-18T14:54:04.655Z,7.20
2022-12-18T14:56:31.400Z,7.20
2022-12-18T14:59:04.522Z,5.90
2022-12-18T15:01:51.661Z,6.60
2022-12-18T15:04:40.280Z,6.30
2022-12-18T15:07:11.921Z,8.60
2022-12-18T15:09:40.251Z,6.10
2022-12-18T15:12:25.884Z,8.60
2022-12-18T15:14:52.616Z,8.90
2022-12-18T15:17:23.964Z,7.80
2022-12-18T15:19:59.731Z,6.60
2022-12-18T15:22:29.613Z,7.70
2022-12-18T15:24:58.910Z,9.30
2022-12-18T15:27:36.827Z,8.90
2022-12-18T15:30:25.204Z,10.20
2022-12-18T15:32:53.278Z,9.30
2022-12-18T15:35:23.808Z,10.90
2022-12-18T15:37:52.516Z,9.90
2022-12-18T15:40:22.148Z,14.50
2022-12-18T15:43:11.377Z,11.30
2022-12-18T15:45:38.223Z,11.40
2022-12-18T15:48:21.624Z,9.60
2022-12-18T15:50:48.702Z,10.20
2022-12-18T15:53:15.360Z,10.70
2022-12-18T15:56:01.530Z,10.00
2022-12-18T15:58:28.492Z,14.20
2022-12-18T16:00:57.249Z,13.40
2022-12-18T16:03:23.945Z,12.70
2022-12-18T16:05:51.587Z,15.60
2022-12-18T16:08:18.158Z,17.30
2022-12-18T16:10:44.863Z,13.00
2022-12-18T16:13:13.684Z,22.00
2022-12-18T16:15:40.568Z,19.80
2022-12-18T16:18:08.634Z,18.40
2022-12-18T16:20:35.415Z,11.90
2022-12-18T16:23:02.353Z,10.20
2022-12-18T16:25:29.592Z,12.30
2022-12-18T16:27:57.483Z,12.60
2022-12-18T16:30:28.854Z,10.60
2022-12-18T16:32:59.800Z,11.50
2022-12-18T16:35:27.855Z,11.60
2022-12-18T16:37:54.561Z,9.60
2022-12-18T16:40:21.647Z,9.10
2022-12-18T16:42:48.628Z,10.10
2022-12-18T16:45:18.215Z,13.80
2022-12-18T16:47:45.352Z,12.70
2022-12-18T16:50:12.431Z,9.70
2022-12-18T16:52:39.730Z,14.50
2022-12-18T16:55:07.014Z,11.20
2022-12-18T16:57:34.065Z,11.70
2022-12-18T17:00:05.287Z,11.20
2022-12-18T17:02:33.501Z,10.80
2022-12-18T17:05:01.045Z,9.90
2022-12-18T17:07:29.069Z,12.40
2022-12-18T17:09:56.378Z,11.90
2022-12-18T17:12:23.465Z,12.30
2022-12-18T17:14:50.199Z,12.60
2022-12-18T17:17:22.806Z,14.40
2022-12-18T17:19:52.193Z,13.20
2022-12-18T17:22:19.836Z,10.90
2022-12-18T17:24:47.590Z,10.30
2022-12-18T17:27:14.985Z,12.70
2022-12-18T17:29:47.377Z,12.30
2022-12-18T17:32:15.452Z,12.00
2022-12-18T17:34:42.112Z,11.20
2022-12-18T17:37:09.788Z,13.00
2022-12-18T17:39:36.765Z,14.40
2022-12-18T17:42:04.009Z,14.30
2022-12-18T17:44:32.061Z,16.90
2022-12-18T17:46:58.869Z,17.20
2022-12-18T17:49:25.596Z,13.40
2022-12-18T17:51:52.188Z,15.30
2022-12-18T17:54:18.915Z,14.40
2022-12-18T17:56:45.920Z,14.40
2022-12-18T17:59:13.231Z,13.60
2022-12-18T18:01:44.446Z,17.10
2022-12-18T18:04:13.229Z,12.50
2022-12-18T18:06:40.647Z,13.60
2022-12-18T18:09:16.051Z,12.70
2022-12-18T18:12:04.295Z,11.70
2022-12-18T18:14:31.433Z,12.30
2022-12-18T18:17:01.760Z,11.20
2022-12-18T18:19:33.472Z,17.50
2022-12-18T18:22:01.439Z,15.00
2022-12-18T18:24:29.090Z,14.10
2022-12-18T18:26:55.883Z,13.40
2022-12-18T18:29:26.899Z,12.70
2022-12-18T18:31:54.631Z,13.60
2022-12-18T18:34:27.216Z,13.60
2022-12-18T18:36:54.129Z,13.40
2022-12-18T18:39:21.222Z,11.60
2022-12-18T18:41:48.798Z,16.40
2022-12-18T18:44:17.305Z,14.30
2022-12-18T18:46:45.039Z,11.30
2022-12-18T18:49:13.582Z,13.80
2022-12-18T18:51:41.414Z,12.50
2022-12-18T18:54:08.345Z,13.10
2022-12-18T18:56:56.109Z,18.10
2022-12-18T18:59:29.139Z,16.00
2022-12-18T19:01:59.017Z,20.30
2022-12-18T19:04:25.823Z,22.00
2022-12-18T19:06:53.013Z,17.60
2022-12-18T19:09:21.856Z,14.90
2022-12-18T19:12:07.590Z,16.10
2022-12-18T19:14:34.293Z,16.90
2022-12-18T19:17:00.996Z,16.10
2022-12-18T19:19:28.352Z,15.90
2022-12-18T19:21:55.434Z,17.80
2022-12-18T19:24:22.654Z,17.60
2022-12-18T19:26:49.649Z,17.10
2022-12-18T19:29:16.264Z,15.20
2022-12-18T19:31:43.088Z,13.80
2022-12-18T19:34:09.880Z,14.70
2022-12-18T19:36:39.032Z,12.90
2022-12-18T19:39:14.801Z,14.50
2022-12-18T19:41:42.992Z,13.20
2022-12-18T19:44:15.483Z,13.80
2022-12-18T19:46:43.055Z,17.40
2022-12-18T19:49:11.375Z,17.70
2022-12-18T19:51:43.491Z,13.10
2022-12-18T19:54:16.424Z,11.70
2022-12-18T19:56:44.132Z,12.50
2022-12-18T19:59:10.734Z,12.80
2022-12-18T20:01:37.555Z,11.00
2022-12-18T20:04:05.114Z,12.20
2022-12-18T20:06:46.765Z,13.50
2022-12-18T20:09:13.783Z,13.40
2022-12-18T20:11:41.972Z,29.70
2022-12-18T20:14:14.865Z,19.20
2022-12-18T20:16:44.892Z,13.00
2022-12-18T20:19:13.103Z,11.30
2022-12-18T20:21:41.498Z,12.00
2022-12-18T20:24:09.015Z,14.80
2022-12-18T20:26:35.759Z,11.70
2022-12-18T20:29:02.411Z,11.80
2022-12-18T20:31:29.218Z,15.40
2022-12-18T20:34:00.315Z,16.30
2022-12-18T20:36:29.490Z,17.40
2022-12-18T20:38:59.198Z,13.30
2022-12-18T20:41:37.205Z,15.30
2022-12-18T20:44:10.291Z,15.70
2022-12-18T20:46:50.574Z,13.20
2022-12-18T20:49:17.256Z,11.50
2022-12-18T20:51:43.864Z,10.70
2022-12-18T20:54:15.197Z,10.70
2022-12-18T20:56:45.104Z,13.30
2022-12-18T20:59:13.740Z,13.90
2022-12-18T21:01:48.163Z,11.70
2022-12-18T21:04:18.428Z,10.50
2022-12-18T21:06:50.998Z,10.30
2022-12-18T21:09:20.630Z,11.00
2022-12-18T21:12:06.110Z,11.10
2022-12-18T21:14:33.056Z,10.40
2022-12-18T21:17:03.147Z,13.40
2022-12-18T21:19:30.033Z,15.60
2022-12-18T21:21:57.803Z,15.00
2022-12-18T21:24:25.220Z,10.70
2022-12-18T21:26:52.400Z,12.70
2022-12-18T21:29:24.778Z,16.20
2022-12-18T21:31:54.559Z,12.80
2022-12-18T21:34:27.598Z,11.00
2022-12-18T21:36:56.482Z,11.70
2022-12-18T21:39:25.217Z,11.30
2022-12-18T21:42:11.261Z,12.10
2022-12-18T21:44:42.271Z,10.90
2022-12-18T21:47:21.734Z,10.10
2022-12-18T21:49:52.185Z,10.40
2022-12-18T21:52:19.523Z,11.20
2022-12-18T21:54:48.313Z,10.70
2022-12-18T21:57:14.944Z,10.80
2022-12-18T21:59:43.730Z,13.80
2022-12-18T22:02:17.132Z,11.50
2022-12-18T22:04:44.568Z,12.90
2022-12-18T22:07:11.914Z,10.80
2022-12-18T22:09:39.009Z,9.70
2022-12-18T22:12:06.728Z,12.50
2022-12-18T22:14:33.411Z,10.30
2022-12-18T22:17:00.107Z,15.60
2022-12-18T22:19:28.280Z,14.50
2022-12-18T22:21:55.353Z,14.50
2022-12-18T22:24:26.953Z,12.50
2022-12-18T22:27:01.698Z,13.00
2022-12-18T22:29:48.164Z,11.80
2022-12-18T22:32:29.083Z,11.60
2022-12-18T22:35:08.361Z,10.50
2022-12-18T22:37:37.229Z,13.10
2022-12-18T22:40:06.088Z,10.60
2022-12-18T22:42:34.244Z,12.70
2022-12-18T22:45:00.987Z,15.30
2022-12-18T22:47:30.054Z,12.30
2022-12-18T22:49:58.279Z,13.50
2022-12-18T22:52:25.357Z,9.80
2022-12-18T22:54:53.599Z,11.60
2022-12-18T22:57:22.272Z,11.20
2022-12-18T22:59:50.248Z,11.70
2022-12-18T23:02:20.882Z,9.90
2022-12-18T23:04:47.952Z,12.40
2022-12-18T23:07:15.986Z,8.70
2022-12-18T23:09:42.676Z,10.00
2022-12-18T23:12:15.079Z,7.90
2022-12-18T23:14:42.479Z,9.00
2022-12-18T23:17:12.224Z,8.80
2022-12-18T23:19:49.366Z,7.60
2022-12-18T23:22:17.476Z,6.70
2022-12-18T23:24:44.391Z,8.90
2022-12-18T23:27:11.992Z,7.80
2022-12-18T23:29:40.036Z,7.40
2022-12-18T23:32:07.545Z,9.00
2022-12-18T23:34:34.434Z,9.00
2022-12-18T23:37:01.182Z,9.90
2022-12-18T23:39:28.813Z,8.60
2022-12-18T23:42:00.634Z,8.10
2022-12-18T23:44:27.930Z,10.50
2022-12-18T23:46:54.902Z,7.90
2022-12-18T23:49:21.933Z,10.10
2022-12-18T23:51:49.171Z,9.70
2022-12-18T23:54:16.223Z,9.70
2022-12-18T23:56:43.249Z,9.60
2022-12-18T23:59:10.208Z,9.40
